sensor_id;sensor_type;location;lat;lon;timestamp;pressure;altitude;pressure_sealevel;temperature;humidity
39051;BME280;24805;55.852;37.644;2023-06-22T00:00:59;99610.50;;;15.30;42.99
39051;BME280;24805;55.852;37.644;2023-06-22T00:06:02;99613.34;;;15.22;43.14
39051;BME280;24805;55.852;37.644;2023-06-22T00:11:05;99611.69;;;15.21;42.77
39051;BME280;24805;55.852;37.644;2023-06-22T00:16:07;99620.16;;;15.18;43.54
39051;BME280;24805;55.852;37.644;2023-06-22T00:21:09;99629.81;;;15.12;44.35
39051;BME280;24805;55.852;37.644;2023-06-22T00:26:11;99625.50;;;15.11;43.64
39051;BME280;24805;55.852;37.644;2023-06-22T00:31:13;99617.88;;;15.55;40.36
39051;BME280;24805;55.852;37.644;2023-06-22T00:36:16;99611.72;;;15.14;44.06
39051;BME280;24805;55.852;37.644;2023-06-22T00:41:19;99615.19;;;15.08;44.45
39051;BME280;24805;55.852;37.644;2023-06-22T00:46:22;99615.81;;;15.10;44.08
39051;BME280;24805;55.852;37.644;2023-06-22T00:51:25;99609.84;;;15.08;44.52
39051;BME280;24805;55.852;37.644;2023-06-22T00:56:28;99610.47;;;15.10;44.46
39051;BME280;24805;55.852;37.644;2023-06-22T01:01:31;99613.34;;;15.09;44.46
39051;BME280;24805;55.852;37.644;2023-06-22T01:06:54;99609.66;;;15.23;43.51
39051;BME280;24805;55.852;37.644;2023-06-22T01:12:06;99603.09;;;15.12;44.01
39051;BME280;24805;55.852;37.644;2023-06-22T01:17:11;99627.97;;;15.26;44.41
39051;BME280;24805;55.852;37.644;2023-06-22T01:22:18;99626.31;;;15.25;45.33
39051;BME280;24805;55.852;37.644;2023-06-22T01:33:17;99621.78;;;15.52;43.43
39051;BME280;24805;55.852;37.644;2023-06-22T01:38:20;99623.66;;;15.65;43.02
39051;BME280;24805;55.852;37.644;2023-06-22T01:43:24;99623.22;;;15.81;44.48
39051;BME280;24805;55.852;37.644;2023-06-22T01:48:27;99626.50;;;15.83;44.38
39051;BME280;24805;55.852;37.644;2023-06-22T01:53:30;99623.81;;;15.90;45.27
39051;BME280;24805;55.852;37.644;2023-06-22T01:58:33;99618.00;;;15.99;42.47
39051;BME280;24805;55.852;37.644;2023-06-22T02:03:40;99628.44;;;16.20;41.47
39051;BME280;24805;55.852;37.644;2023-06-22T02:08:49;99618.13;;;16.37;44.29
39051;BME280;24805;55.852;37.644;2023-06-22T02:13:53;99603.53;;;16.27;43.46
39051;BME280;24805;55.852;37.644;2023-06-22T02:19:01;99603.03;;;16.43;43.71
39051;BME280;24805;55.852;37.644;2023-06-22T02:24:08;99593.00;;;16.38;44.29
39051;BME280;24805;55.852;37.644;2023-06-22T02:29:11;99587.19;;;16.41;44.57
39051;BME280;24805;55.852;37.644;2023-06-22T02:34:13;99586.97;;;16.43;44.37
39051;BME280;24805;55.852;37.644;2023-06-22T02:39:20;99585.13;;;16.43;44.79
39051;BME280;24805;55.852;37.644;2023-06-22T02:44:24;99579.34;;;16.46;43.50
39051;BME280;24805;55.852;37.644;2023-06-22T02:49:26;99578.09;;;16.49;43.24
39051;BME280;24805;55.852;37.644;2023-06-22T02:54:29;99573.53;;;16.56;42.60
39051;BME280;24805;55.852;37.644;2023-06-22T02:59:32;99572.25;;;16.65;42.54
39051;BME280;24805;55.852;37.644;2023-06-22T03:04:42;99568.28;;;16.74;42.35
39051;BME280;24805;55.852;37.644;2023-06-22T03:09:45;99551.34;;;16.80;42.55
39051;BME280;24805;55.852;37.644;2023-06-22T03:14:47;99573.41;;;17.07;42.75
39051;BME280;24805;55.852;37.644;2023-06-22T03:19:49;99568.31;;;17.24;41.96
39051;BME280;24805;55.852;37.644;2023-06-22T03:24:51;99550.63;;;17.41;40.79
39051;BME280;24805;55.852;37.644;2023-06-22T03:29:54;99545.97;;;17.55;40.68
39051;BME280;24805;55.852;37.644;2023-06-22T03:34:57;99549.06;;;17.77;39.86
39051;BME280;24805;55.852;37.644;2023-06-22T03:40:01;99551.75;;;17.95;39.72
39051;BME280;24805;55.852;37.644;2023-06-22T03:45:07;99546.38;;;18.13;39.12
39051;BME280;24805;55.852;37.644;2023-06-22T03:50:09;99545.44;;;18.38;39.08
39051;BME280;24805;55.852;37.644;2023-06-22T03:55:12;99531.03;;;18.62;39.17
39051;BME280;24805;55.852;37.644;2023-06-22T04:00:14;99533.47;;;18.93;38.04
39051;BME280;24805;55.852;37.644;2023-06-22T04:05:17;99529.63;;;19.24;36.85
39051;BME280;24805;55.852;37.644;2023-06-22T04:10:21;99518.97;;;19.41;36.22
39051;BME280;24805;55.852;37.644;2023-06-22T04:15:23;99525.31;;;19.70;35.87
39051;BME280;24805;55.852;37.644;2023-06-22T04:20:25;99514.72;;;19.92;35.44
39051;BME280;24805;55.852;37.644;2023-06-22T04:25:30;99520.81;;;20.27;34.76
39051;BME280;24805;55.852;37.644;2023-06-22T04:30:33;99521.91;;;20.55;34.02
39051;BME280;24805;55.852;37.644;2023-06-22T04:35:35;99510.91;;;20.90;34.09
39051;BME280;24805;55.852;37.644;2023-06-22T04:40:37;99515.50;;;21.23;33.23
39051;BME280;24805;55.852;37.644;2023-06-22T04:45:39;99503.59;;;21.41;32.85
39051;BME280;24805;55.852;37.644;2023-06-22T04:50:42;99518.44;;;21.60;32.62
39051;BME280;24805;55.852;37.644;2023-06-22T04:55:44;99519.28;;;21.82;32.58
39051;BME280;24805;55.852;37.644;2023-06-22T05:00:48;99509.63;;;22.30;31.84
39051;BME280;24805;55.852;37.644;2023-06-22T05:05:53;99507.81;;;22.67;31.70
39051;BME280;24805;55.852;37.644;2023-06-22T05:10:55;99517.13;;;22.77;31.22
39051;BME280;24805;55.852;37.644;2023-06-22T05:16:06;99526.72;;;22.89;31.16
39051;BME280;24805;55.852;37.644;2023-06-22T05:21:09;99509.34;;;22.85;31.34
39051;BME280;24805;55.852;37.644;2023-06-22T05:26:11;99520.91;;;23.08;30.86
39051;BME280;24805;55.852;37.644;2023-06-22T05:31:14;99515.22;;;23.09;30.74
39051;BME280;24805;55.852;37.644;2023-06-22T05:36:16;99504.94;;;23.06;30.87
39051;BME280;24805;55.852;37.644;2023-06-22T05:41:20;99501.28;;;24.32;29.56
39051;BME280;24805;55.852;37.644;2023-06-22T05:46:22;99490.13;;;25.65;27.55
39051;BME280;24805;55.852;37.644;2023-06-22T05:51:25;99511.25;;;26.82;26.09
39051;BME280;24805;55.852;37.644;2023-06-22T05:56:27;99509.41;;;27.64;24.90
39051;BME280;24805;55.852;37.644;2023-06-22T06:01:29;99519.84;;;28.05;24.25
39051;BME280;24805;55.852;37.644;2023-06-22T06:06:37;99509.16;;;28.51;23.97
39051;BME280;24805;55.852;37.644;2023-06-22T06:11:39;99511.25;;;28.92;22.87
39051;BME280;24805;55.852;37.644;2023-06-22T06:16:41;99506.56;;;30.12;21.92
39051;BME280;24805;55.852;37.644;2023-06-22T06:21:44;99501.25;;;30.88;20.84
39051;BME280;24805;55.852;37.644;2023-06-22T06:26:46;99509.31;;;31.68;20.10
39051;BME280;24805;55.852;37.644;2023-06-22T06:31:48;99502.94;;;31.59;19.40
39051;BME280;24805;55.852;37.644;2023-06-22T06:36:53;99504.56;;;31.91;19.48
39051;BME280;24805;55.852;37.644;2023-06-22T06:41:55;99506.59;;;32.85;18.15
39051;BME280;24805;55.852;37.644;2023-06-22T06:46:57;99494.38;;;34.06;17.42
39051;BME280;24805;55.852;37.644;2023-06-22T06:52:00;99496.34;;;34.68;17.00
39051;BME280;24805;55.852;37.644;2023-06-22T06:57:02;99493.00;;;34.41;16.49
39051;BME280;24805;55.852;37.644;2023-06-22T07:02:05;99492.25;;;34.74;16.18
39051;BME280;24805;55.852;37.644;2023-06-22T07:07:07;99491.56;;;35.31;15.43
39051;BME280;24805;55.852;37.644;2023-06-22T07:12:09;99499.81;;;35.43;15.69
39051;BME280;24805;55.852;37.644;2023-06-22T07:17:11;99487.44;;;35.85;15.43
39051;BME280;24805;55.852;37.644;2023-06-22T07:22:14;99483.56;;;36.39;14.77
39051;BME280;24805;55.852;37.644;2023-06-22T07:27:16;99480.75;;;36.91;14.21
39051;BME280;24805;55.852;37.644;2023-06-22T07:32:21;99489.00;;;36.35;14.68
39051;BME280;24805;55.852;37.644;2023-06-22T07:37:23;99482.16;;;37.29;14.01
39051;BME280;24805;55.852;37.644;2023-06-22T07:42:26;99482.94;;;37.60;13.57
39051;BME280;24805;55.852;37.644;2023-06-22T07:47:28;99475.94;;;38.33;13.18
39051;BME280;24805;55.852;37.644;2023-06-22T07:52:31;99481.13;;;38.35;13.08
39051;BME280;24805;55.852;37.644;2023-06-22T07:57:33;99470.44;;;38.72;13.17
39051;BME280;24805;55.852;37.644;2023-06-22T08:02:36;99468.47;;;39.14;12.38
39051;BME280;24805;55.852;37.644;2023-06-22T08:07:39;99456.22;;;39.87;12.17
39051;BME280;24805;55.852;37.644;2023-06-22T08:12:41;99462.97;;;39.41;12.14
39051;BME280;24805;55.852;37.644;2023-06-22T08:17:45;99448.88;;;39.76;11.71
39051;BME280;24805;55.852;37.644;2023-06-22T08:22:50;99437.41;;;40.37;11.15
39051;BME280;24805;55.852;37.644;2023-06-22T08:27:53;99451.78;;;41.13;10.64
39051;BME280;24805;55.852;37.644;2023-06-22T08:32:56;99453.16;;;42.54;10.30
39051;BME280;24805;55.852;37.644;2023-06-22T08:37:58;99444.88;;;43.96;9.67
39051;BME280;24805;55.852;37.644;2023-06-22T08:43:01;99441.94;;;44.35;9.13
39051;BME280;24805;55.852;37.644;2023-06-22T08:48:04;99432.91;;;45.79;8.45
39051;BME280;24805;55.852;37.644;2023-06-22T08:53:06;99429.16;;;47.15;7.38
39051;BME280;24805;55.852;37.644;2023-06-22T08:58:08;99423.53;;;47.15;7.55
39051;BME280;24805;55.852;37.644;2023-06-22T09:03:10;99414.59;;;46.70;7.69
39051;BME280;24805;55.852;37.644;2023-06-22T09:08:13;99411.47;;;45.62;7.92
39051;BME280;24805;55.852;37.644;2023-06-22T09:13:15;99398.59;;;44.72;8.46
39051;BME280;24805;55.852;37.644;2023-06-22T09:18:18;99410.34;;;44.38;8.57
39051;BME280;24805;55.852;37.644;2023-06-22T09:23:20;99408.66;;;43.36;8.66
39051;BME280;24805;55.852;37.644;2023-06-22T09:28:22;99418.19;;;43.13;9.44
39051;BME280;24805;55.852;37.644;2023-06-22T09:33:25;99408.59;;;43.57;9.08
39051;BME280;24805;55.852;37.644;2023-06-22T09:38:28;99396.00;;;44.33;8.68
39051;BME280;24805;55.852;37.644;2023-06-22T09:43:31;99393.88;;;43.28;9.57
39051;BME280;24805;55.852;37.644;2023-06-22T09:48:34;99394.66;;;43.04;9.74
39051;BME280;24805;55.852;37.644;2023-06-22T09:53:36;99388.22;;;42.78;10.32
39051;BME280;24805;55.852;37.644;2023-06-22T09:58:39;99373.91;;;43.44;9.80
39051;BME280;24805;55.852;37.644;2023-06-22T10:03:41;99376.47;;;44.22;9.13
39051;BME280;24805;55.852;37.644;2023-06-22T10:08:43;99370.16;;;44.84;8.89
39051;BME280;24805;55.852;37.644;2023-06-22T10:13:46;99375.69;;;44.18;8.84
39051;BME280;24805;55.852;37.644;2023-06-22T10:18:48;99375.41;;;43.94;8.97
39051;BME280;24805;55.852;37.644;2023-06-22T10:23:50;99361.38;;;44.82;9.04
39051;BME280;24805;55.852;37.644;2023-06-22T10:28:53;99352.00;;;45.44;8.43
39051;BME280;24805;55.852;37.644;2023-06-22T10:34:15;99336.13;;;46.36;8.35
39051;BME280;24805;55.852;37.644;2023-06-22T10:39:17;99341.19;;;46.44;8.14
39051;BME280;24805;55.852;37.644;2023-06-22T10:44:19;99343.03;;;46.81;7.57
39051;BME280;24805;55.852;37.644;2023-06-22T10:49:22;99347.84;;;45.21;8.24
39051;BME280;24805;55.852;37.644;2023-06-22T10:54:24;99340.66;;;43.95;9.03
39051;BME280;24805;55.852;37.644;2023-06-22T10:59:27;99333.59;;;45.02;9.10
39051;BME280;24805;55.852;37.644;2023-06-22T11:04:30;99320.63;;;46.78;7.84
39051;BME280;24805;55.852;37.644;2023-06-22T11:09:32;99320.22;;;46.79;7.65
39051;BME280;24805;55.852;37.644;2023-06-22T11:14:35;99321.50;;;44.67;8.81
39051;BME280;24805;55.852;37.644;2023-06-22T11:19:37;99306.13;;;44.34;8.83
39051;BME280;24805;55.852;37.644;2023-06-22T11:24:39;99304.16;;;45.31;8.24
39051;BME280;24805;55.852;37.644;2023-06-22T11:29:41;99298.66;;;44.76;8.71
39051;BME280;24805;55.852;37.644;2023-06-22T11:34:43;99292.84;;;43.76;9.22
39051;BME280;24805;55.852;37.644;2023-06-22T11:39:46;99295.78;;;42.55;10.03
39051;BME280;24805;55.852;37.644;2023-06-22T11:44:54;99280.22;;;43.36;9.76
39051;BME280;24805;55.852;37.644;2023-06-22T11:49:58;99275.06;;;44.73;9.30
39051;BME280;24805;55.852;37.644;2023-06-22T11:55:01;99270.41;;;45.04;8.92
39051;BME280;24805;55.852;37.644;2023-06-22T12:00:06;99253.41;;;45.93;8.26
39051;BME280;24805;55.852;37.644;2023-06-22T12:05:18;99248.66;;;45.19;8.32
39051;BME280;24805;55.852;37.644;2023-06-22T12:10:22;99249.59;;;42.54;9.65
39051;BME280;24805;55.852;37.644;2023-06-22T12:15:24;99240.19;;;40.99;11.42
39051;BME280;24805;55.852;37.644;2023-06-22T12:20:26;99232.38;;;42.02;10.48
39051;BME280;24805;55.852;37.644;2023-06-22T12:25:29;99222.47;;;42.69;10.35
39051;BME280;24805;55.852;37.644;2023-06-22T12:30:34;99217.25;;;42.78;10.17
39051;BME280;24805;55.852;37.644;2023-06-22T12:35:36;99206.91;;;42.11;10.93
39051;BME280;24805;55.852;37.644;2023-06-22T12:40:38;99204.19;;;41.20;11.23
39051;BME280;24805;55.852;37.644;2023-06-22T12:45:41;99196.31;;;41.37;11.47
39051;BME280;24805;55.852;37.644;2023-06-22T12:50:43;99200.53;;;41.09;11.32
39051;BME280;24805;55.852;37.644;2023-06-22T12:55:45;99196.28;;;40.68;11.61
39051;BME280;24805;55.852;37.644;2023-06-22T13:00:48;99191.91;;;38.92;12.63
39051;BME280;24805;55.852;37.644;2023-06-22T13:05:50;99176.94;;;38.02;13.80
39051;BME280;24805;55.852;37.644;2023-06-22T13:10:52;99192.28;;;38.64;13.51
39051;BME280;24805;55.852;37.644;2023-06-22T13:15:54;99185.72;;;39.02;13.24
39051;BME280;24805;55.852;37.644;2023-06-22T13:20:57;99178.16;;;38.04;13.37
39051;BME280;24805;55.852;37.644;2023-06-22T13:26:00;99160.03;;;36.56;14.69
39051;BME280;24805;55.852;37.644;2023-06-22T13:31:02;99162.22;;;35.32;16.08
39051;BME280;24805;55.852;37.644;2023-06-22T13:36:04;99151.03;;;35.00;16.34
39051;BME280;24805;55.852;37.644;2023-06-22T13:41:08;99142.59;;;34.44;15.99
39051;BME280;24805;55.852;37.644;2023-06-22T13:46:10;99153.34;;;33.47;16.97
39051;BME280;24805;55.852;37.644;2023-06-22T13:51:12;99147.22;;;32.49;18.16
39051;BME280;24805;55.852;37.644;2023-06-22T13:56:14;99134.38;;;31.95;18.21
39051;BME280;24805;55.852;37.644;2023-06-22T14:01:17;99132.50;;;31.43;19.08
39051;BME280;24805;55.852;37.644;2023-06-22T14:06:19;99132.69;;;31.12;19.44
39051;BME280;24805;55.852;37.644;2023-06-22T14:11:21;99125.09;;;30.92;19.38
39051;BME280;24805;55.852;37.644;2023-06-22T14:16:23;99118.47;;;30.93;19.61
39051;BME280;24805;55.852;37.644;2023-06-22T14:21:25;99132.00;;;31.07;19.60
39051;BME280;24805;55.852;37.644;2023-06-22T14:26:28;99106.72;;;30.75;19.94
39051;BME280;24805;55.852;37.644;2023-06-22T14:31:30;99128.09;;;30.56;20.50
39051;BME280;24805;55.852;37.644;2023-06-22T14:36:32;99117.44;;;30.55;21.08
39051;BME280;24805;55.852;37.644;2023-06-22T14:41:34;99126.97;;;30.66;20.40
39051;BME280;24805;55.852;37.644;2023-06-22T14:46:36;99117.09;;;30.47;20.89
39051;BME280;24805;55.852;37.644;2023-06-22T14:51:39;99110.13;;;30.41;20.76
39051;BME280;24805;55.852;37.644;2023-06-22T14:56:41;99113.81;;;30.28;21.13
39051;BME280;24805;55.852;37.644;2023-06-22T15:01:43;99106.34;;;30.11;21.15
39051;BME280;24805;55.852;37.644;2023-06-22T15:06:48;99108.00;;;29.90;21.64
39051;BME280;24805;55.852;37.644;2023-06-22T15:11:51;99112.59;;;29.81;21.31
39051;BME280;24805;55.852;37.644;2023-06-22T15:16:53;99096.38;;;29.76;21.63
39051;BME280;24805;55.852;37.644;2023-06-22T15:21:56;99102.16;;;29.83;21.25
39051;BME280;24805;55.852;37.644;2023-06-22T15:26:58;99096.75;;;29.92;21.51
39051;BME280;24805;55.852;37.644;2023-06-22T15:32:00;99088.69;;;29.87;21.94
39051;BME280;24805;55.852;37.644;2023-06-22T15:37:03;99104.06;;;29.29;23.93
39051;BME280;24805;55.852;37.644;2023-06-22T15:42:06;99096.19;;;28.42;25.34
39051;BME280;24805;55.852;37.644;2023-06-22T15:47:08;99102.53;;;27.50;26.45
39051;BME280;24805;55.852;37.644;2023-06-22T15:52:11;99125.28;;;26.84;27.44
39051;BME280;24805;55.852;37.644;2023-06-22T15:57:13;99109.28;;;26.16;28.45
39051;BME280;24805;55.852;37.644;2023-06-22T16:02:16;99133.00;;;25.82;29.34
39051;BME280;24805;55.852;37.644;2023-06-22T16:07:18;99125.66;;;25.53;29.94
39051;BME280;24805;55.852;37.644;2023-06-22T16:12:20;99132.59;;;25.35;30.19
39051;BME280;24805;55.852;37.644;2023-06-22T16:17:23;99125.41;;;25.16;30.33
39051;BME280;24805;55.852;37.644;2023-06-22T16:22:27;99138.50;;;24.98;30.67
39051;BME280;24805;55.852;37.644;2023-06-22T16:27:29;99124.00;;;24.74;30.40
39051;BME280;24805;55.852;37.644;2023-06-22T16:32:34;99139.56;;;24.48;30.81
39051;BME280;24805;55.852;37.644;2023-06-22T16:37:36;99137.47;;;24.25;31.26
39051;BME280;24805;55.852;37.644;2023-06-22T16:42:38;99141.34;;;23.83;32.09
39051;BME280;24805;55.852;37.644;2023-06-22T16:47:50;99140.81;;;23.61;32.67
39051;BME280;24805;55.852;37.644;2023-06-22T16:52:52;99145.41;;;23.50;32.59
39051;BME280;24805;55.852;37.644;2023-06-22T16:57:55;99145.66;;;23.38;33.18
39051;BME280;24805;55.852;37.644;2023-06-22T17:03:03;99139.44;;;23.28;33.42
39051;BME280;24805;55.852;37.644;2023-06-22T17:08:09;99139.94;;;23.05;34.23
39051;BME280;24805;55.852;37.644;2023-06-22T17:13:15;99135.00;;;22.76;34.52
39051;BME280;24805;55.852;37.644;2023-06-22T17:18:18;99135.44;;;22.53;34.95
39051;BME280;24805;55.852;37.644;2023-06-22T17:23:23;99145.84;;;22.24;35.81
39051;BME280;24805;55.852;37.644;2023-06-22T17:28:26;99131.84;;;21.90;36.60
39051;BME280;24805;55.852;37.644;2023-06-22T17:33:29;99153.59;;;21.73;36.93
39051;BME280;24805;55.852;37.644;2023-06-22T17:38:31;99141.88;;;21.57;36.96
39051;BME280;24805;55.852;37.644;2023-06-22T17:43:43;99142.69;;;21.58;36.87
39051;BME280;24805;55.852;37.644;2023-06-22T17:48:47;99155.25;;;21.74;33.81
39051;BME280;24805;55.852;37.644;2023-06-22T17:53:49;99136.19;;;21.00;37.67
39051;BME280;24805;55.852;37.644;2023-06-22T17:58:55;99151.03;;;20.97;37.89
39051;BME280;24805;55.852;37.644;2023-06-22T18:03:57;99156.44;;;20.76;38.19
39051;BME280;24805;55.852;37.644;2023-06-22T18:09:03;99158.69;;;20.62;37.88
39051;BME280;24805;55.852;37.644;2023-06-22T18:14:06;99159.91;;;20.49;37.99
39051;BME280;24805;55.852;37.644;2023-06-22T18:19:09;99160.38;;;20.46;38.25
39051;BME280;24805;55.852;37.644;2023-06-22T18:24:13;99162.44;;;20.39;38.38
39051;BME280;24805;55.852;37.644;2023-06-22T18:29:16;99164.00;;;20.35;38.05
39051;BME280;24805;55.852;37.644;2023-06-22T18:34:18;99156.91;;;20.29;38.12
39051;BME280;24805;55.852;37.644;2023-06-22T18:39:22;99139.25;;;20.16;37.95
39051;BME280;24805;55.852;37.644;2023-06-22T18:44:26;99131.69;;;19.97;38.00
39051;BME280;24805;55.852;37.644;2023-06-22T18:54:47;99134.16;;;19.81;38.69
39051;BME280;24805;55.852;37.644;2023-06-22T19:00:07;99132.84;;;19.84;38.44
39051;BME280;24805;55.852;37.644;2023-06-22T19:05:16;99127.81;;;19.71;39.25
39051;BME280;24805;55.852;37.644;2023-06-22T19:15:40;99134.50;;;19.68;39.12
39051;BME280;24805;55.852;37.644;2023-06-22T19:21:03;99133.19;;;19.71;39.17
39051;BME280;24805;55.852;37.644;2023-06-22T19:26:07;99120.38;;;19.61;39.75
39051;BME280;24805;55.852;37.644;2023-06-22T19:31:10;99136.38;;;19.51;39.90
39051;BME280;24805;55.852;37.644;2023-06-22T19:36:19;99126.75;;;19.55;39.51
39051;BME280;24805;55.852;37.644;2023-06-22T19:41:21;99130.72;;;19.36;40.42
39051;BME280;24805;55.852;37.644;2023-06-22T19:46:31;99123.53;;;19.41;39.73
39051;BME280;24805;55.852;37.644;2023-06-22T19:51:34;99117.25;;;19.19;40.92
39051;BME280;24805;55.852;37.644;2023-06-22T19:56:38;99101.53;;;19.11;41.20
39051;BME280;24805;55.852;37.644;2023-06-22T20:01:41;99081.06;;;18.93;41.02
39051;BME280;24805;55.852;37.644;2023-06-22T20:07:05;99093.13;;;19.24;40.21
39051;BME280;24805;55.852;37.644;2023-06-22T20:12:09;99088.47;;;19.03;41.41
39051;BME280;24805;55.852;37.644;2023-06-22T20:17:14;99100.63;;;19.05;41.41
39051;BME280;24805;55.852;37.644;2023-06-22T20:22:17;99097.44;;;18.91;42.04
39051;BME280;24805;55.852;37.644;2023-06-22T20:27:19;99079.72;;;18.79;42.66
39051;BME280;24805;55.852;37.644;2023-06-22T20:32:21;99080.22;;;18.76;42.88
39051;BME280;24805;55.852;37.644;2023-06-22T20:37:24;99072.06;;;18.71;42.97
39051;BME280;24805;55.852;37.644;2023-06-22T20:42:30;99063.66;;;18.67;43.02
39051;BME280;24805;55.852;37.644;2023-06-22T20:47:32;99058.19;;;18.62;43.29
39051;BME280;24805;55.852;37.644;2023-06-22T20:52:35;99043.59;;;18.58;43.20
39051;BME280;24805;55.852;37.644;2023-06-22T20:57:37;99039.16;;;18.52;43.36
39051;BME280;24805;55.852;37.644;2023-06-22T21:02:39;99035.31;;;18.48;43.58
39051;BME280;24805;55.852;37.644;2023-06-22T21:07:42;99028.31;;;18.47;42.97
39051;BME280;24805;55.852;37.644;2023-06-22T21:12:44;99031.25;;;18.45;43.13
39051;BME280;24805;55.852;37.644;2023-06-22T21:17:47;99027.91;;;18.38;43.12
39051;BME280;24805;55.852;37.644;2023-06-22T21:22:52;99014.16;;;18.35;43.19
39051;BME280;24805;55.852;37.644;2023-06-22T21:27:54;99016.97;;;18.28;43.27
39051;BME280;24805;55.852;37.644;2023-06-22T21:32:56;98996.13;;;18.18;43.50
39051;BME280;24805;55.852;37.644;2023-06-22T21:37:58;98997.78;;;18.08;43.75
39051;BME280;24805;55.852;37.644;2023-06-22T21:43:00;99006.78;;;18.02;43.95
39051;BME280;24805;55.852;37.644;2023-06-22T21:48:05;99008.41;;;18.03;43.81
39051;BME280;24805;55.852;37.644;2023-06-22T21:53:07;98994.41;;;18.01;44.15
39051;BME280;24805;55.852;37.644;2023-06-22T21:58:10;98988.84;;;17.90;44.18
39051;BME280;24805;55.852;37.644;2023-06-22T22:03:12;98980.09;;;17.83;44.65
39051;BME280;24805;55.852;37.644;2023-06-22T22:08:15;98994.00;;;17.80;44.73
39051;BME280;24805;55.852;37.644;2023-06-22T22:13:18;98978.03;;;17.74;44.51
39051;BME280;24805;55.852;37.644;2023-06-22T22:18:21;98957.53;;;17.68;44.56
39051;BME280;24805;55.852;37.644;2023-06-22T22:23:23;98954.13;;;17.61;45.02
39051;BME280;24805;55.852;37.644;2023-06-22T22:28:27;98947.72;;;17.50;45.35
39051;BME280;24805;55.852;37.644;2023-06-22T22:33:30;98937.13;;;17.43;44.92
39051;BME280;24805;55.852;37.644;2023-06-22T22:38:32;98927.25;;;17.32;45.20
39051;BME280;24805;55.852;37.644;2023-06-22T22:43:37;98921.78;;;17.27;45.01
39051;BME280;24805;55.852;37.644;2023-06-22T22:48:39;98933.41;;;17.21;45.42
39051;BME280;24805;55.852;37.644;2023-06-22T22:53:42;98947.63;;;17.21;45.05
39051;BME280;24805;55.852;37.644;2023-06-22T22:58:44;98954.06;;;17.20;45.41
39051;BME280;24805;55.852;37.644;2023-06-22T23:03:46;98929.94;;;17.20;45.71
39051;BME280;24805;55.852;37.644;2023-06-22T23:08:49;98931.22;;;17.18;45.85
39051;BME280;24805;55.852;37.644;2023-06-22T23:13:58;98920.41;;;17.13;45.76
39051;BME280;24805;55.852;37.644;2023-06-22T23:19:00;98918.19;;;17.10;45.84
39051;BME280;24805;55.852;37.644;2023-06-22T23:24:03;98924.00;;;17.07;45.58
39051;BME280;24805;55.852;37.644;2023-06-22T23:29:05;98911.53;;;17.01;46.05
39051;BME280;24805;55.852;37.644;2023-06-22T23:34:07;98928.41;;;17.01;45.90
39051;BME280;24805;55.852;37.644;2023-06-22T23:39:09;98922.25;;;17.01;45.79
39051;BME280;24805;55.852;37.644;2023-06-22T23:44:11;98918.53;;;17.02;45.87
39051;BME280;24805;55.852;37.644;2023-06-22T23:49:14;98927.59;;;17.01;45.69
39051;BME280;24805;55.852;37.644;2023-06-22T23:54:16;98929.59;;;16.94;45.64
39051;BME280;24805;55.852;37.644;2023-06-22T23:59:18;98910.38;;;16.85;45.62
